Time;durP1;ratioP1;P1;durP2;ratioP2;P2;SDS_P1;SDS_P2;PMS_P1;PMS_P2;Temp;Humidity;BMP_temperature;BMP_pressure;BME280_temperature;BME280_humidity;BME280_pressure;Samples;Min_cycle;Max_cycle;Signal;HPM_P1;HPM_P2
2024/03/08 00:02:10;;;;;;;223.70;59.80;;;;;;;;;;4984493;28;20963;-45
2024/03/08 00:04:36;;;;;;;223.50;60.60;;;;;;;;;;4990332;28;20824;-45
2024/03/08 00:07:02;;;;;;;224.43;59.30;;;;;;;;;;4987976;28;20456;-44
2024/03/08 00:09:30;;;;;;;224.15;60.30;;;;;;;;;;4989827;28;20420;-44
2024/03/08 00:11:56;;;;;;;224.48;60.30;;;;;;;;;;4981578;28;20546;-44
2024/03/08 00:14:22;;;;;;;224.45;60.80;;;;;;;;;;4987079;28;20205;-44
2024/03/08 00:16:48;;;;;;;225.67;62.40;;;;;;;;;;4983392;28;20192;-45
2024/03/08 00:19:14;;;;;;;221.97;58.93;;;;;;;;;;4989571;28;20475;-44
2024/03/08 00:21:41;;;;;;;222.60;59.70;;;;;;;;;;4989734;28;20471;-44
2024/03/08 00:24:07;;;;;;;220.95;59.42;;;;;;;;;;4987105;28;20436;-44
2024/03/08 00:26:33;;;;;;;222.55;58.92;;;;;;;;;;4987129;28;20173;-44
2024/03/08 00:28:59;;;;;;;222.02;59.53;;;;;;;;;;4987561;28;20243;-43
2024/03/08 00:31:25;;;;;;;221.57;59.90;;;;;;;;;;4985169;28;20196;-44
2024/03/08 00:33:52;;;;;;;209.43;57.35;;;;;;;;;;4987730;28;20802;-44
2024/03/08 00:36:18;;;;;;;214.13;59.08;;;;;;;;;;4977393;28;20177;-44
2024/03/08 00:38:44;;;;;;;213.43;58.17;;;;;;;;;;4987179;28;20707;-44
2024/03/08 00:41:10;;;;;;;214.32;59.35;;;;;;;;;;4985791;28;20173;-44
2024/03/08 00:43:36;;;;;;;215.70;59.17;;;;;;;;;;4985328;28;20550;-44
2024/03/08 00:46:02;;;;;;;220.47;58.60;;;;;;;;;;4987141;28;20747;-44
2024/03/08 00:48:28;;;;;;;218.98;58.70;;;;;;;;;;4989510;28;20403;-44
2024/03/08 00:50:54;;;;;;;215.13;58.50;;;;;;;;;;4987244;28;20707;-43
2024/03/08 00:53:20;;;;;;;215.33;58.47;;;;;;;;;;4987974;28;20825;-44
2024/03/08 00:55:47;;;;;;;217.35;59.65;;;;;;;;;;4982943;28;20412;-44
2024/03/08 00:58:13;;;;;;;213.60;57.30;;;;;;;;;;4984001;28;20281;-44
2024/03/08 01:00:39;;;;;;;217.75;59.70;;;;;;;;;;4988788;28;20685;-44
2024/03/08 01:03:06;;;;;;;217.50;59.67;;;;;;;;;;4987763;28;20210;-44
2024/03/08 01:05:32;;;;;;;212.80;58.38;;;;;;;;;;4988417;28;20664;-44
2024/03/08 01:07:58;;;;;;;213.83;58.50;;;;;;;;;;4986754;28;20185;-44
2024/03/08 01:10:24;;;;;;;211.37;57.30;;;;;;;;;;4986404;28;20420;-44
2024/03/08 01:12:50;;;;;;;214.20;57.50;;;;;;;;;;4977246;28;20845;-45
2024/03/08 01:15:16;;;;;;;216.73;60.70;;;;;;;;;;4988468;28;20827;-44
2024/03/08 01:17:44;;;;;;;211.48;56.50;;;;;;;;;;4989062;28;20482;-44
2024/03/08 01:20:12;;;;;;;209.85;57.58;;;;;;;;;;4993111;28;20180;-44
2024/03/08 01:22:38;;;;;;;211.93;57.72;;;;;;;;;;4993208;28;20280;-44
2024/03/08 01:25:04;;;;;;;211.77;57.13;;;;;;;;;;4992589;28;20208;-44
2024/03/08 01:27:30;;;;;;;211.77;57.08;;;;;;;;;;4993264;28;20408;-44
2024/03/08 01:29:58;;;;;;;212.75;57.55;;;;;;;;;;4993295;28;20180;-44
2024/03/08 01:32:24;;;;;;;210.95;56.88;;;;;;;;;;4993126;28;20551;-44
2024/03/08 01:34:50;;;;;;;210.67;57.73;;;;;;;;;;4993129;28;20315;-44
2024/03/08 01:37:16;;;;;;;212.03;58.40;;;;;;;;;;4992792;28;20450;-43
2024/03/08 01:39:42;;;;;;;212.27;59.30;;;;;;;;;;4992939;28;20474;-43
2024/03/08 01:42:08;;;;;;;211.13;59.15;;;;;;;;;;4992775;28;20495;-44
2024/03/08 01:44:34;;;;;;;211.90;59.03;;;;;;;;;;4986423;28;20177;-44
2024/03/08 01:47:01;;;;;;;210.23;57.83;;;;;;;;;;4979834;28;20162;-44
2024/03/08 01:49:27;;;;;;;209.32;56.95;;;;;;;;;;4983959;28;20204;-44
2024/03/08 01:51:53;;;;;;;212.63;60.10;;;;;;;;;;4982563;28;20634;-44
2024/03/08 01:54:19;;;;;;;210.30;59.97;;;;;;;;;;4987083;28;20965;-44
2024/03/08 01:56:46;;;;;;;213.32;59.13;;;;;;;;;;4984178;28;20826;-44
2024/03/08 01:59:12;;;;;;;211.85;58.92;;;;;;;;;;4983443;28;20469;-44
2024/03/08 02:01:38;;;;;;;211.32;59.53;;;;;;;;;;4981779;28;20182;-44
2024/03/08 02:04:07;;;;;;;210.82;57.72;;;;;;;;;;4983259;28;20292;-44
2024/03/08 02:06:32;;;;;;;212.00;57.40;;;;;;;;;;4987088;28;20216;-44
2024/03/08 02:08:58;;;;;;;210.97;58.90;;;;;;;;;;4985390;28;20555;-45
2024/03/08 02:11:24;;;;;;;211.20;58.70;;;;;;;;;;4985618;28;20416;-44
2024/03/08 02:13:50;;;;;;;210.63;58.40;;;;;;;;;;4982078;28;20308;-45
2024/03/08 02:16:22;;;;;;;208.77;58.13;;;;;;;;;;4981892;28;20415;-44
2024/03/08 02:18:48;;;;;;;209.00;58.13;;;;;;;;;;4986010;28;20506;-44
2024/03/08 02:21:18;;;;;;;210.27;57.03;;;;;;;;;;4986642;28;20188;-44
2024/03/08 02:23:44;;;;;;;211.57;59.33;;;;;;;;;;4984822;28;20189;-44
2024/03/08 02:26:10;;;;;;;207.40;56.22;;;;;;;;;;4986018;28;20200;-45
2024/03/08 02:28:36;;;;;;;211.73;58.63;;;;;;;;;;4984259;28;20307;-44
2024/03/08 02:31:02;;;;;;;208.63;56.95;;;;;;;;;;4978130;28;20209;-44
2024/03/08 02:33:29;;;;;;;208.90;57.05;;;;;;;;;;4987526;28;20598;-44
2024/03/08 02:35:58;;;;;;;207.23;56.17;;;;;;;;;;4984681;28;20189;-44
2024/03/08 02:38:24;;;;;;;210.63;59.05;;;;;;;;;;4985064;28;20216;-44
2024/03/08 02:40:50;;;;;;;212.70;59.83;;;;;;;;;;4981699;28;20237;-44
2024/03/08 02:43:21;;;;;;;209.30;58.47;;;;;;;;;;4984603;28;20673;-44
2024/03/08 02:45:48;;;;;;;209.70;59.78;;;;;;;;;;4983772;28;20216;-44
2024/03/08 02:48:14;;;;;;;211.13;58.38;;;;;;;;;;4986947;28;20236;-43
2024/03/08 02:50:42;;;;;;;210.25;57.58;;;;;;;;;;4986175;28;20185;-45
2024/03/08 02:53:08;;;;;;;211.75;59.22;;;;;;;;;;4983500;28;20292;-44
2024/03/08 02:55:35;;;;;;;212.65;59.10;;;;;;;;;;4983381;28;20232;-44
2024/03/08 02:58:03;;;;;;;212.73;58.75;;;;;;;;;;4979574;28;20204;-44
2024/03/08 03:00:30;;;;;;;210.85;60.03;;;;;;;;;;4987920;28;20243;-44
2024/03/08 03:02:56;;;;;;;209.48;57.38;;;;;;;;;;4983752;28;20245;-43
2024/03/08 03:05:22;;;;;;;211.32;58.70;;;;;;;;;;4981385;28;20215;-44
2024/03/08 03:07:48;;;;;;;211.90;59.47;;;;;;;;;;4977737;28;20185;-44
2024/03/08 03:10:16;;;;;;;209.15;56.80;;;;;;;;;;4982918;28;20396;-43
2024/03/08 03:12:43;;;;;;;211.07;57.33;;;;;;;;;;4980865;28;20200;-44
2024/03/08 03:15:09;;;;;;;214.95;62.08;;;;;;;;;;4985583;28;20188;-44
2024/03/08 03:17:35;;;;;;;208.75;57.80;;;;;;;;;;4986424;28;20185;-44
2024/03/08 03:20:09;;;;;;;210.03;57.57;;;;;;;;;;4983244;28;20188;-44
2024/03/08 03:22:35;;;;;;;210.63;58.50;;;;;;;;;;4977578;28;20440;-44
2024/03/08 03:25:02;;;;;;;209.35;57.92;;;;;;;;;;4983937;28;20177;-44
2024/03/08 03:27:30;;;;;;;210.60;57.03;;;;;;;;;;4982502;28;20252;-44
2024/03/08 03:29:57;;;;;;;212.63;58.63;;;;;;;;;;4988359;28;20185;-44
2024/03/08 03:32:23;;;;;;;210.35;58.47;;;;;;;;;;4987021;28;20201;-44
2024/03/08 03:34:52;;;;;;;210.50;58.00;;;;;;;;;;4979860;28;20180;-44
2024/03/08 03:37:19;;;;;;;206.27;56.38;;;;;;;;;;4967315;28;20177;-44
2024/03/08 03:39:48;;;;;;;211.60;58.33;;;;;;;;;;4991276;28;20255;-44
2024/03/08 03:42:19;;;;;;;210.07;56.90;;;;;;;;;;4983442;28;20198;-44
2024/03/08 03:44:48;;;;;;;209.60;56.53;;;;;;;;;;4991642;28;20244;-44
2024/03/08 03:47:15;;;;;;;209.68;56.55;;;;;;;;;;4982618;28;20581;-44
2024/03/08 03:49:41;;;;;;;207.60;55.97;;;;;;;;;;4991163;28;20177;-44
2024/03/08 03:52:07;;;;;;;210.52;56.85;;;;;;;;;;4982874;28;20201;-44
2024/03/08 03:54:33;;;;;;;208.77;56.20;;;;;;;;;;4987145;28;20661;-44
2024/03/08 03:57:00;;;;;;;210.63;57.70;;;;;;;;;;4990821;28;20227;-44
2024/03/08 03:59:26;;;;;;;208.45;56.67;;;;;;;;;;4981332;28;21070;-44
2024/03/08 04:01:54;;;;;;;211.07;57.92;;;;;;;;;;4979484;28;20180;-44
2024/03/08 04:04:20;;;;;;;209.23;56.80;;;;;;;;;;4984701;28;20197;-44
2024/03/08 04:06:46;;;;;;;210.55;58.42;;;;;;;;;;4976119;28;20181;-44
2024/03/08 04:09:12;;;;;;;209.60;55.78;;;;;;;;;;4980160;28;20187;-44
2024/03/08 04:11:39;;;;;;;208.52;56.17;;;;;;;;;;4980384;28;20220;-44
2024/03/08 04:14:05;;;;;;;208.07;56.10;;;;;;;;;;4983924;28;20205;-44
2024/03/08 04:16:31;;;;;;;210.57;58.05;;;;;;;;;;4978541;28;20191;-43
2024/03/08 04:18:57;;;;;;;209.60;57.38;;;;;;;;;;4981255;28;20212;-44
2024/03/08 04:21:23;;;;;;;209.88;55.92;;;;;;;;;;4989424;28;20255;-43
2024/03/08 04:23:49;;;;;;;210.35;58.25;;;;;;;;;;4979772;28;20206;-43
2024/03/08 04:26:15;;;;;;;209.63;56.92;;;;;;;;;;4976228;28;20180;-43
2024/03/08 04:28:41;;;;;;;209.13;55.97;;;;;;;;;;4986647;28;20173;-43
2024/03/08 04:31:07;;;;;;;210.27;57.25;;;;;;;;;;4982463;28;20420;-43
2024/03/08 04:33:35;;;;;;;209.75;56.90;;;;;;;;;;4989733;28;20204;-44
2024/03/08 04:36:04;;;;;;;210.93;57.90;;;;;;;;;;4986224;28;20170;-43
2024/03/08 04:38:31;;;;;;;208.90;56.50;;;;;;;;;;4987052;28;20200;-43
2024/03/08 04:40:58;;;;;;;210.10;56.55;;;;;;;;;;4983127;28;20185;-43
2024/03/08 04:43:26;;;;;;;208.68;57.45;;;;;;;;;;4985304;28;20784;-43
2024/03/08 04:45:53;;;;;;;211.13;57.85;;;;;;;;;;4985958;28;20640;-43
2024/03/08 04:48:20;;;;;;;207.30;54.88;;;;;;;;;;4983879;28;20204;-44
2024/03/08 04:50:46;;;;;;;208.25;57.60;;;;;;;;;;4981699;28;20250;-44
2024/03/08 04:53:12;;;;;;;207.52;56.42;;;;;;;;;;4985912;28;20596;-43
2024/03/08 04:55:38;;;;;;;206.30;54.63;;;;;;;;;;4984699;28;20189;-43
2024/03/08 04:58:05;;;;;;;205.98;54.47;;;;;;;;;;4981382;28;20519;-43
2024/03/08 05:00:32;;;;;;;208.18;55.70;;;;;;;;;;4984035;28;20260;-43
2024/03/08 05:02:58;;;;;;;206.57;54.65;;;;;;;;;;4985516;28;20265;-43
2024/03/08 05:05:24;;;;;;;209.90;57.20;;;;;;;;;;4984778;28;20185;-43
2024/03/08 05:07:50;;;;;;;209.02;57.72;;;;;;;;;;4985732;28;20844;-43
2024/03/08 05:10:17;;;;;;;208.80;56.58;;;;;;;;;;4984757;28;20181;-43
2024/03/08 05:12:43;;;;;;;209.27;56.33;;;;;;;;;;4982329;28;20606;-43
2024/03/08 05:15:09;;;;;;;213.83;60.43;;;;;;;;;;4987701;28;20231;-44
2024/03/08 05:17:34;;;;;;;207.37;56.17;;;;;;;;;;4988459;28;20448;-43
2024/03/08 05:20:00;;;;;;;207.40;56.30;;;;;;;;;;4985529;28;20464;-43
2024/03/08 05:22:26;;;;;;;202.77;55.03;;;;;;;;;;4981337;28;20449;-43
2024/03/08 05:24:53;;;;;;;206.30;56.70;;;;;;;;;;4985477;28;20420;-43
2024/03/08 05:27:19;;;;;;;207.70;55.83;;;;;;;;;;4982678;28;20185;-44
2024/03/08 05:29:46;;;;;;;207.10;55.42;;;;;;;;;;4987536;28;20420;-43
2024/03/08 05:32:12;;;;;;;208.43;56.42;;;;;;;;;;4984396;28;20705;-43
2024/03/08 05:34:38;;;;;;;203.75;54.47;;;;;;;;;;4982901;28;20196;-43
2024/03/08 05:37:04;;;;;;;204.68;53.65;;;;;;;;;;4982638;28;20181;-44
2024/03/08 05:39:30;;;;;;;205.05;54.20;;;;;;;;;;4988575;28;20204;-43
2024/03/08 05:41:56;;;;;;;211.32;57.67;;;;;;;;;;4986092;28;20188;-43
2024/03/08 05:44:22;;;;;;;206.75;56.47;;;;;;;;;;4988571;28;20199;-43
2024/03/08 05:46:50;;;;;;;208.10;55.90;;;;;;;;;;4979794;28;20181;-43
2024/03/08 05:49:16;;;;;;;204.20;54.13;;;;;;;;;;4985733;28;20178;-43
2024/03/08 05:51:42;;;;;;;206.83;55.20;;;;;;;;;;4977674;28;20212;-44
2024/03/08 05:54:11;;;;;;;205.18;54.35;;;;;;;;;;4981400;28;20815;-43
2024/03/08 05:56:37;;;;;;;206.45;56.53;;;;;;;;;;4987716;28;20631;-44
2024/03/08 05:59:05;;;;;;;205.90;54.85;;;;;;;;;;4979770;28;20703;-43
2024/03/08 06:01:31;;;;;;;204.52;53.10;;;;;;;;;;4988368;28;20177;-44
2024/03/08 06:03:57;;;;;;;205.82;53.40;;;;;;;;;;4992490;28;20228;-43
2024/03/08 06:06:24;;;;;;;206.77;54.67;;;;;;;;;;4992320;28;20695;-43
2024/03/08 06:08:50;;;;;;;208.30;56.00;;;;;;;;;;4985130;28;20483;-43
2024/03/08 06:11:20;;;;;;;206.20;55.63;;;;;;;;;;4978870;28;20177;-44
2024/03/08 06:13:46;;;;;;;207.02;55.50;;;;;;;;;;4983914;28;20684;-43
2024/03/08 06:16:12;;;;;;;205.80;54.42;;;;;;;;;;4975141;28;20193;-43
2024/03/08 06:18:41;;;;;;;205.35;53.47;;;;;;;;;;4987070;28;20207;-44
2024/03/08 06:21:09;;;;;;;206.30;53.80;;;;;;;;;;4972778;28;20260;-44
2024/03/08 06:23:38;;;;;;;206.43;54.28;;;;;;;;;;4982108;28;20200;-43
2024/03/08 06:26:04;;;;;;;210.95;56.35;;;;;;;;;;4980178;28;20177;-43
2024/03/08 06:28:32;;;;;;;211.73;57.88;;;;;;;;;;4977042;28;20215;-43
2024/03/08 06:30:58;;;;;;;212.43;57.33;;;;;;;;;;4984713;28;20209;-44
2024/03/08 06:33:26;;;;;;;209.02;55.53;;;;;;;;;;4987104;28;20201;-43
2024/03/08 06:35:52;;;;;;;213.48;58.85;;;;;;;;;;4978833;28;20189;-43
2024/03/08 06:38:19;;;;;;;210.73;55.70;;;;;;;;;;4977586;28;20213;-43
2024/03/08 06:40:47;;;;;;;212.23;56.20;;;;;;;;;;4986217;28;20420;-43
2024/03/08 06:43:15;;;;;;;212.95;58.00;;;;;;;;;;4973216;28;20292;-43
2024/03/08 06:45:42;;;;;;;207.35;55.25;;;;;;;;;;4978022;28;20166;-44
2024/03/08 06:48:09;;;;;;;211.95;57.38;;;;;;;;;;4983540;28;20185;-44
2024/03/08 06:50:36;;;;;;;215.88;58.97;;;;;;;;;;4981944;28;20472;-43
2024/03/08 06:53:03;;;;;;;215.15;58.03;;;;;;;;;;4983667;28;20213;-43
2024/03/08 06:55:29;;;;;;;212.88;57.00;;;;;;;;;;4977799;28;20181;-44
2024/03/08 06:57:55;;;;;;;215.57;58.05;;;;;;;;;;4978800;28;20191;-44
2024/03/08 07:00:26;;;;;;;216.40;57.78;;;;;;;;;;4983384;28;20181;-44
2024/03/08 07:02:53;;;;;;;218.05;60.58;;;;;;;;;;4983392;28;20197;-44
2024/03/08 07:05:19;;;;;;;221.38;60.28;;;;;;;;;;4977883;28;20175;-44
2024/03/08 07:07:48;;;;;;;221.65;60.15;;;;;;;;;;4982568;28;20608;-44
2024/03/08 07:10:15;;;;;;;219.25;59.72;;;;;;;;;;4978647;28;20219;-44
2024/03/08 07:12:41;;;;;;;220.05;58.63;;;;;;;;;;4983597;28;20239;-44
2024/03/08 07:15:07;;;;;;;227.23;66.47;;;;;;;;;;4985268;28;20530;-44
2024/03/08 07:17:35;;;;;;;221.77;60.60;;;;;;;;;;4986936;28;20542;-43
2024/03/08 07:20:10;;;;;;;220.88;59.35;;;;;;;;;;4982822;28;20652;-44
2024/03/08 07:22:36;;;;;;;221.60;59.53;;;;;;;;;;4983530;28;20248;-43
2024/03/08 07:25:21;;;;;;;224.18;62.78;;;;;;;;;;4977652;28;20652;-44
2024/03/08 07:27:49;;;;;;;222.85;59.10;;;;;;;;;;4985384;28;20203;-44
2024/03/08 07:33:27;;;;;;;226.65;60.45;;;;;;;;;;4984549;28;20206;-44
2024/03/08 07:35:53;;;;;;;229.05;63.30;;;;;;;;;;4980887;28;20208;-45
2024/03/08 07:38:21;;;;;;;227.37;62.10;;;;;;;;;;4986604;28;20280;-44
2024/03/08 07:40:47;;;;;;;229.15;63.63;;;;;;;;;;4991370;28;20409;-44
2024/03/08 07:43:13;;;;;;;231.95;63.45;;;;;;;;;;4983025;28;20696;-44
2024/03/08 07:45:39;;;;;;;229.23;60.97;;;;;;;;;;4992347;28;20181;-44
2024/03/08 07:48:09;;;;;;;232.10;63.43;;;;;;;;;;4995074;28;20191;-44
2024/03/08 07:50:39;;;;;;;234.52;63.47;;;;;;;;;;4989476;28;20906;-44
2024/03/08 07:53:06;;;;;;;237.10;66.22;;;;;;;;;;4993181;28;20227;-44
2024/03/08 07:55:32;;;;;;;235.43;67.05;;;;;;;;;;4990732;28;20239;-44
2024/03/08 07:57:58;;;;;;;234.57;63.83;;;;;;;;;;4986720;28;20552;-45
2024/03/08 08:00:27;;;;;;;238.53;66.57;;;;;;;;;;4990693;28;20181;-44
2024/03/08 08:02:53;;;;;;;239.38;67.43;;;;;;;;;;4983271;28;20930;-44
2024/03/08 08:05:19;;;;;;;232.07;67.10;;;;;;;;;;4994590;28;20186;-45
2024/03/08 08:07:45;;;;;;;233.32;66.20;;;;;;;;;;4994568;28;20420;-44
2024/03/08 08:10:21;;;;;;;235.15;70.43;;;;;;;;;;4994614;28;20683;-44
2024/03/08 08:12:48;;;;;;;229.90;65.28;;;;;;;;;;4994709;28;20718;-44
2024/03/08 08:15:15;;;;;;;235.85;71.22;;;;;;;;;;4994437;28;20175;-44
2024/03/08 08:17:41;;;;;;;228.95;65.18;;;;;;;;;;4988307;28;20566;-44
2024/03/08 08:20:07;;;;;;;234.13;70.25;;;;;;;;;;4992928;28;20202;-44
2024/03/08 08:22:33;;;;;;;231.80;66.35;;;;;;;;;;4978850;28;20213;-44
2024/03/08 08:24:59;;;;;;;233.07;70.30;;;;;;;;;;4991699;28;20196;-44
2024/03/08 08:27:26;;;;;;;228.77;65.70;;;;;;;;;;4991287;28;20442;-44
2024/03/08 08:29:52;;;;;;;229.38;66.07;;;;;;;;;;4986274;28;20411;-43
2024/03/08 08:32:18;;;;;;;230.90;66.97;;;;;;;;;;4994225;28;20183;-44
2024/03/08 08:34:44;;;;;;;234.40;71.63;;;;;;;;;;4987155;28;20181;-44
2024/03/08 08:37:10;;;;;;;230.75;67.55;;;;;;;;;;4990032;28;20177;-44
2024/03/08 08:39:37;;;;;;;228.43;67.17;;;;;;;;;;4992258;28;20219;-44
2024/03/08 08:42:03;;;;;;;232.00;68.20;;;;;;;;;;4984593;28;20404;-44
2024/03/08 08:44:31;;;;;;;227.95;66.35;;;;;;;;;;4987506;28;20181;-44
2024/03/08 08:46:57;;;;;;;227.90;65.30;;;;;;;;;;4993501;28;20169;-44
2024/03/08 08:49:24;;;;;;;231.88;70.45;;;;;;;;;;4993279;28;20180;-44
2024/03/08 08:51:50;;;;;;;232.38;68.78;;;;;;;;;;4984633;28;20224;-44
2024/03/08 08:54:16;;;;;;;232.00;68.50;;;;;;;;;;4988319;28;20224;-44
2024/03/08 08:56:47;;;;;;;231.57;69.13;;;;;;;;;;4993148;28;20321;-44
2024/03/08 08:59:19;;;;;;;233.48;70.50;;;;;;;;;;4994375;28;20201;-43
2024/03/08 09:01:47;;;;;;;232.77;69.88;;;;;;;;;;4985140;28;20169;-44
2024/03/08 09:04:13;;;;;;;232.38;69.13;;;;;;;;;;4982722;28;20201;-43
2024/03/08 09:06:43;;;;;;;233.55;70.43;;;;;;;;;;4983488;28;20236;-44
2024/03/08 09:09:10;;;;;;;231.15;69.70;;;;;;;;;;4987924;28;20169;-43
2024/03/08 09:11:38;;;;;;;233.32;69.68;;;;;;;;;;4976498;28;20204;-44
2024/03/08 09:14:04;;;;;;;232.60;68.47;;;;;;;;;;4974288;28;20284;-44
2024/03/08 09:16:32;;;;;;;235.20;71.50;;;;;;;;;;4982356;28;20495;-43
2024/03/08 09:18:59;;;;;;;237.35;71.45;;;;;;;;;;4982754;28;20199;-44
2024/03/08 09:21:27;;;;;;;234.45;69.32;;;;;;;;;;4977861;28;20179;-44
2024/03/08 09:23:53;;;;;;;239.13;73.68;;;;;;;;;;4980552;28;20218;-44
2024/03/08 09:26:19;;;;;;;236.07;70.93;;;;;;;;;;4977056;28;20216;-44
2024/03/08 09:28:45;;;;;;;238.77;74.57;;;;;;;;;;4976648;28;20906;-44
2024/03/08 09:31:11;;;;;;;239.93;75.35;;;;;;;;;;4985772;28;20600;-44
2024/03/08 09:33:39;;;;;;;241.13;73.63;;;;;;;;;;4985295;28;20551;-44
2024/03/08 09:36:05;;;;;;;240.40;74.40;;;;;;;;;;4989485;28;20445;-44
2024/03/08 09:38:31;;;;;;;235.07;72.90;;;;;;;;;;4986729;28;20462;-44
2024/03/08 09:40:57;;;;;;;236.57;75.90;;;;;;;;;;4984924;28;20500;-44
2024/03/08 09:43:24;;;;;;;236.83;77.43;;;;;;;;;;4992841;28;20428;-44
2024/03/08 09:45:51;;;;;;;236.10;76.10;;;;;;;;;;4985120;28;20417;-44
2024/03/08 09:48:18;;;;;;;238.10;78.20;;;;;;;;;;4992600;28;20481;-44
2024/03/08 09:50:44;;;;;;;237.67;76.37;;;;;;;;;;4984963;28;20982;-44
2024/03/08 09:53:12;;;;;;;236.00;76.73;;;;;;;;;;4976128;28;20464;-44
2024/03/08 09:55:42;;;;;;;234.97;74.47;;;;;;;;;;4985965;28;20491;-44
2024/03/08 09:58:36;;;;;;;234.47;74.40;;;;;;;;;;4982186;28;20423;-44
2024/03/08 10:01:04;;;;;;;233.47;74.90;;;;;;;;;;4973250;28;20417;-44
2024/03/08 10:03:30;;;;;;;240.63;81.53;;;;;;;;;;4972693;28;20456;-44
2024/03/08 10:06:00;;;;;;;236.07;75.20;;;;;;;;;;4979471;28;20765;-44
2024/03/08 10:08:27;;;;;;;235.77;73.77;;;;;;;;;;4974504;28;20497;-44
2024/03/08 10:10:53;;;;;;;239.37;80.10;;;;;;;;;;4981180;28;20441;-44
2024/03/08 10:13:19;;;;;;;234.17;74.47;;;;;;;;;;4978223;28;20848;-44
2024/03/08 10:15:45;;;;;;;236.20;74.27;;;;;;;;;;4977211;28;20414;-44
2024/03/08 10:18:12;;;;;;;236.00;76.87;;;;;;;;;;4976381;28;20495;-44
2024/03/08 10:20:38;;;;;;;237.80;74.87;;;;;;;;;;4983876;28;20419;-44
2024/03/08 10:23:05;;;;;;;238.53;78.57;;;;;;;;;;4973539;28;20441;-44
2024/03/08 10:25:31;;;;;;;234.93;74.53;;;;;;;;;;4973741;28;20515;-44
2024/03/08 10:27:57;;;;;;;238.23;77.57;;;;;;;;;;4988167;28;20412;-44
2024/03/08 10:30:23;;;;;;;237.90;78.00;;;;;;;;;;4981494;28;20430;-44
2024/03/08 10:32:49;;;;;;;245.20;90.27;;;;;;;;;;4982362;28;20943;-44
2024/03/08 10:35:16;;;;;;;246.50;87.33;;;;;;;;;;4991495;28;20415;-44
2024/03/08 10:37:46;;;;;;;240.23;78.63;;;;;;;;;;4991726;28;20426;-44
2024/03/08 10:40:19;;;;;;;240.40;80.77;;;;;;;;;;4991775;28;20995;-45
2024/03/08 10:42:52;;;;;;;240.63;81.77;;;;;;;;;;4991932;28;20806;-44
2024/03/08 10:45:27;;;;;;;237.47;77.43;;;;;;;;;;4991895;28;20809;-44
2024/03/08 10:47:59;;;;;;;239.77;79.40;;;;;;;;;;4983725;28;20430;-44
2024/03/08 10:50:25;;;;;;;238.13;76.67;;;;;;;;;;4983770;28;20408;-44
2024/03/08 10:52:52;;;;;;;237.40;76.67;;;;;;;;;;4991471;28;20448;-44
2024/03/08 10:55:20;;;;;;;237.97;80.13;;;;;;;;;;4979915;28;20404;-44
2024/03/08 10:57:46;;;;;;;242.17;81.60;;;;;;;;;;4987326;28;20770;-44
2024/03/08 11:00:13;;;;;;;242.27;81.53;;;;;;;;;;4988550;28;20483;-44
2024/03/08 11:02:39;;;;;;;242.37;83.77;;;;;;;;;;4976997;28;20437;-44
2024/03/08 11:05:05;;;;;;;243.37;84.60;;;;;;;;;;4983287;28;20503;-44
2024/03/08 11:07:38;;;;;;;235.67;73.97;;;;;;;;;;4991436;28;20472;-44
2024/03/08 11:10:10;;;;;;;238.90;79.57;;;;;;;;;;4991493;28;20443;-44
2024/03/08 11:12:37;;;;;;;238.93;81.00;;;;;;;;;;4991568;28;20844;-45
2024/03/08 11:15:11;;;;;;;240.97;84.03;;;;;;;;;;4975482;28;20428;-45
2024/03/08 11:17:40;;;;;;;241.17;84.73;;;;;;;;;;4974533;28;20429;-45
2024/03/08 11:20:15;;;;;;;240.17;84.03;;;;;;;;;;4991550;28;20468;-45
2024/03/08 11:22:45;;;;;;;243.03;88.30;;;;;;;;;;4985331;28;21040;-45
2024/03/08 11:25:30;;;;;;;244.50;89.60;;;;;;;;;;4982317;28;20789;-45
2024/03/08 11:28:16;;;;;;;242.83;85.63;;;;;;;;;;4991490;28;20469;-44
2024/03/08 11:30:43;;;;;;;244.77;91.10;;;;;;;;;;4991451;28;20407;-45
2024/03/08 11:33:13;;;;;;;240.20;85.37;;;;;;;;;;4991205;28;20428;-45
2024/03/08 11:35:41;;;;;;;240.90;86.60;;;;;;;;;;4984858;28;20412;-44
2024/03/08 11:38:08;;;;;;;246.80;95.47;;;;;;;;;;4987594;28;20476;-44
2024/03/08 11:40:34;;;;;;;240.23;85.80;;;;;;;;;;4985428;28;20412;-45
2024/03/08 11:43:03;;;;;;;242.80;87.77;;;;;;;;;;4981471;28;20439;-44
2024/03/08 11:45:29;;;;;;;253.33;95.70;;;;;;;;;;4984910;28;20435;-45
2024/03/08 11:47:56;;;;;;;254.93;100.63;;;;;;;;;;4976851;28;20929;-44
2024/03/08 11:50:23;;;;;;;251.63;98.00;;;;;;;;;;4977786;28;20404;-44
2024/03/08 11:52:49;;;;;;;246.60;93.10;;;;;;;;;;4982628;28;20979;-45
2024/03/08 11:55:16;;;;;;;249.87;98.07;;;;;;;;;;4974643;28;20407;-44
2024/03/08 11:57:42;;;;;;;241.20;85.07;;;;;;;;;;4978189;28;20425;-44
2024/03/08 12:00:21;;;;;;;244.97;92.30;;;;;;;;;;4987361;28;20455;-44
2024/03/08 12:02:50;;;;;;;249.17;96.73;;;;;;;;;;4974949;28;20433;-45
2024/03/08 12:05:16;;;;;;;250.67;97.90;;;;;;;;;;4971949;28;20417;-45
2024/03/08 12:07:43;;;;;;;248.20;95.23;;;;;;;;;;4976629;28;20795;-44
2024/03/08 12:10:18;;;;;;;255.23;105.70;;;;;;;;;;4987507;28;21071;-45
2024/03/08 12:12:47;;;;;;;245.27;91.27;;;;;;;;;;4984217;28;20431;-44
2024/03/08 12:15:15;;;;;;;254.87;105.83;;;;;;;;;;4974121;28;20412;-45
2024/03/08 12:17:42;;;;;;;249.70;97.67;;;;;;;;;;4990812;28;20478;-44
2024/03/08 12:20:28;;;;;;;255.80;105.47;;;;;;;;;;4982755;28;20459;-44
2024/03/08 12:22:57;;;;;;;250.40;99.70;;;;;;;;;;4979497;28;20479;-44
2024/03/08 12:25:26;;;;;;;254.37;100.87;;;;;;;;;;4980624;28;20803;-44
2024/03/08 12:27:53;;;;;;;249.13;96.67;;;;;;;;;;4987412;28;20431;-45
2024/03/08 12:30:20;;;;;;;249.97;97.03;;;;;;;;;;4980042;28;20515;-44
2024/03/08 12:32:49;;;;;;;256.50;108.97;;;;;;;;;;4987423;28;20431;-45
2024/03/08 12:35:16;;;;;;;250.13;96.63;;;;;;;;;;4988075;28;20453;-44
2024/03/08 12:37:42;;;;;;;251.43;96.90;;;;;;;;;;4979697;28;20506;-44
2024/03/08 12:40:09;;;;;;;251.03;96.30;;;;;;;;;;4984803;28;20928;-44
2024/03/08 12:42:35;;;;;;;261.90;108.83;;;;;;;;;;4986208;28;20538;-44
2024/03/08 12:45:02;;;;;;;249.50;98.13;;;;;;;;;;4980847;28;20501;-44
2024/03/08 12:47:29;;;;;;;243.67;88.00;;;;;;;;;;4974937;28;20411;-44
2024/03/08 12:49:55;;;;;;;246.17;91.53;;;;;;;;;;4991727;28;20442;-44
2024/03/08 12:52:21;;;;;;;249.30;96.30;;;;;;;;;;4993910;28;20456;-44
2024/03/08 12:54:47;;;;;;;252.83;100.60;;;;;;;;;;4978557;28;20468;-44
2024/03/08 12:57:13;;;;;;;252.37;95.80;;;;;;;;;;4976336;28;20478;-44
2024/03/08 12:59:39;;;;;;;255.33;102.87;;;;;;;;;;4981735;28;20967;-44
2024/03/08 13:02:11;;;;;;;249.10;94.03;;;;;;;;;;4985657;28;20470;-44
2024/03/08 13:04:37;;;;;;;246.67;91.10;;;;;;;;;;4972659;28;20909;-44
2024/03/08 13:07:03;;;;;;;245.13;89.97;;;;;;;;;;4983358;28;20419;-44
2024/03/08 13:09:29;;;;;;;246.63;93.77;;;;;;;;;;4975835;28;20413;-44
2024/03/08 13:11:55;;;;;;;249.53;96.67;;;;;;;;;;4978611;28;20470;-45
2024/03/08 13:14:21;;;;;;;256.63;100.73;;;;;;;;;;4975389;28;20990;-44
2024/03/08 13:16:48;;;;;;;250.80;99.07;;;;;;;;;;4979695;28;20408;-44
2024/03/08 13:19:14;;;;;;;254.83;107.33;;;;;;;;;;4990272;28;20547;-44
2024/03/08 13:21:40;;;;;;;247.07;94.10;;;;;;;;;;4973082;28;20432;-44
2024/03/08 13:24:06;;;;;;;250.87;96.60;;;;;;;;;;4987100;28;20584;-44
2024/03/08 13:26:33;;;;;;;246.50;91.53;;;;;;;;;;4990790;28;20503;-44
2024/03/08 13:28:59;;;;;;;249.70;94.80;;;;;;;;;;4981814;28;20417;-44
2024/03/08 13:31:25;;;;;;;247.70;94.60;;;;;;;;;;4981556;28;20416;-44
2024/03/08 13:33:57;;;;;;;248.60;94.30;;;;;;;;;;4984774;28;20564;-44
2024/03/08 13:36:28;;;;;;;250.53;100.77;;;;;;;;;;4974890;28;20413;-44
2024/03/08 13:38:54;;;;;;;247.30;95.17;;;;;;;;;;4981772;28;20837;-44
2024/03/08 13:41:24;;;;;;;249.83;99.00;;;;;;;;;;4980973;28;20413;-44
2024/03/08 13:43:50;;;;;;;245.80;92.57;;;;;;;;;;4987654;28;20441;-44
2024/03/08 13:46:16;;;;;;;252.23;103.07;;;;;;;;;;4975592;28;20427;-45
2024/03/08 13:48:43;;;;;;;247.47;94.47;;;;;;;;;;4986882;28;20749;-44
2024/03/08 13:51:15;;;;;;;252.00;99.73;;;;;;;;;;4980661;28;20448;-44
2024/03/08 13:53:41;;;;;;;252.70;99.63;;;;;;;;;;4974290;28;20456;-44
2024/03/08 13:56:10;;;;;;;247.07;94.33;;;;;;;;;;4972548;28;20479;-44
2024/03/08 13:58:36;;;;;;;250.93;98.60;;;;;;;;;;4981176;28;20468;-44
2024/03/08 14:01:05;;;;;;;246.33;91.40;;;;;;;;;;4985450;28;20421;-44
2024/03/08 14:03:32;;;;;;;260.33;107.63;;;;;;;;;;4976666;28;20800;-44
2024/03/08 14:05:59;;;;;;;264.70;109.43;;;;;;;;;;4962973;28;20917;-44
2024/03/08 14:08:26;;;;;;;251.67;98.80;;;;;;;;;;4962999;28;20967;-44